sensor_id;sensor_type;location;lat;lon;timestamp;pressure;altitude;pressure_sealevel;temperature;humidity
9439;BME280;5176;42.622;25.386;2023-07-31T00:00:22;96653.63;;;24.93;54.52
9439;BME280;5176;42.622;25.386;2023-07-31T00:02:49;96661.28;;;24.96;55.14
9439;BME280;5176;42.622;25.386;2023-07-31T00:05:16;96662.03;;;24.77;52.52
9439;BME280;5176;42.622;25.386;2023-07-31T00:07:45;96663.63;;;24.64;52.26
9439;BME280;5176;42.622;25.386;2023-07-31T00:10:12;96663.03;;;24.62;51.69
9439;BME280;5176;42.622;25.386;2023-07-31T00:12:42;96652.69;;;24.59;51.15
9439;BME280;5176;42.622;25.386;2023-07-31T00:15:10;96655.19;;;24.67;51.42
9439;BME280;5176;42.622;25.386;2023-07-31T00:17:37;96656.44;;;24.71;51.61
9439;BME280;5176;42.622;25.386;2023-07-31T00:20:05;96653.19;;;24.76;51.24
9439;BME280;5176;42.622;25.386;2023-07-31T00:22:33;96650.91;;;24.80;50.96
9439;BME280;5176;42.622;25.386;2023-07-31T00:25:01;96656.69;;;24.83;50.47
9439;BME280;5176;42.622;25.386;2023-07-31T00:27:28;96649.47;;;24.84;49.90
9439;BME280;5176;42.622;25.386;2023-07-31T00:29:56;96651.34;;;24.83;50.29
9439;BME280;5176;42.622;25.386;2023-07-31T00:32:23;96651.13;;;24.85;49.93
9439;BME280;5176;42.622;25.386;2023-07-31T00:34:50;96658.56;;;24.83;49.90
9439;BME280;5176;42.622;25.386;2023-07-31T00:37:17;96655.06;;;24.82;51.00
9439;BME280;5176;42.622;25.386;2023-07-31T00:39:45;96651.28;;;24.70;50.58
9439;BME280;5176;42.622;25.386;2023-07-31T00:42:13;96642.41;;;24.63;51.56
9439;BME280;5176;42.622;25.386;2023-07-31T00:44:40;96642.78;;;24.60;50.50
9439;BME280;5176;42.622;25.386;2023-07-31T00:47:08;96642.63;;;24.61;50.55
9439;BME280;5176;42.622;25.386;2023-07-31T00:49:35;96643.59;;;24.54;50.61
9439;BME280;5176;42.622;25.386;2023-07-31T00:52:03;96639.19;;;24.39;50.52
9439;BME280;5176;42.622;25.386;2023-07-31T00:54:30;96635.00;;;24.30;49.99
9439;BME280;5176;42.622;25.386;2023-07-31T00:56:57;96623.47;;;24.30;50.54
9439;BME280;5176;42.622;25.386;2023-07-31T00:59:26;96623.25;;;24.25;50.04
9439;BME280;5176;42.622;25.386;2023-07-31T01:01:54;96623.00;;;24.19;49.42
9439;BME280;5176;42.622;25.386;2023-07-31T01:04:21;96618.63;;;24.12;48.65
9439;BME280;5176;42.622;25.386;2023-07-31T01:06:56;96615.13;;;24.11;48.74
9439;BME280;5176;42.622;25.386;2023-07-31T01:09:29;96622.19;;;24.19;48.72
9439;BME280;5176;42.622;25.386;2023-07-31T01:12:02;96634.16;;;24.23;48.76
9439;BME280;5176;42.622;25.386;2023-07-31T01:14:31;96625.69;;;24.19;47.96
9439;BME280;5176;42.622;25.386;2023-07-31T01:16:58;96624.03;;;24.18;48.56
9439;BME280;5176;42.622;25.386;2023-07-31T01:19:26;96631.25;;;24.18;48.08
9439;BME280;5176;42.622;25.386;2023-07-31T01:22:22;96623.81;;;24.20;48.98
9439;BME280;5176;42.622;25.386;2023-07-31T01:24:56;96636.00;;;24.23;48.22
9439;BME280;5176;42.622;25.386;2023-07-31T01:27:30;96636.00;;;24.23;47.91
9439;BME280;5176;42.622;25.386;2023-07-31T01:30:07;96640.38;;;24.30;47.58
9439;BME280;5176;42.622;25.386;2023-07-31T01:32:39;96634.47;;;24.35;48.49
9439;BME280;5176;42.622;25.386;2023-07-31T01:35:08;96636.09;;;24.36;48.63
9439;BME280;5176;42.622;25.386;2023-07-31T01:37:35;96626.31;;;24.22;47.88
9439;BME280;5176;42.622;25.386;2023-07-31T01:40:04;96646.63;;;24.37;48.45
9439;BME280;5176;42.622;25.386;2023-07-31T01:42:33;96639.19;;;24.39;47.72
9439;BME280;5176;42.622;25.386;2023-07-31T01:45:00;96645.63;;;24.45;47.73
9439;BME280;5176;42.622;25.386;2023-07-31T01:47:27;96645.63;;;24.45;47.90
9439;BME280;5176;42.622;25.386;2023-07-31T01:49:54;96648.75;;;24.49;47.93
9439;BME280;5176;42.622;25.386;2023-07-31T01:52:22;96654.47;;;24.45;47.56
9439;BME280;5176;42.622;25.386;2023-07-31T01:54:49;96652.44;;;24.48;48.90
9439;BME280;5176;42.622;25.386;2023-07-31T01:57:16;96653.44;;;24.46;47.64
9439;BME280;5176;42.622;25.386;2023-07-31T01:59:45;96652.41;;;24.41;49.28
9439;BME280;5176;42.622;25.386;2023-07-31T02:02:12;96646.63;;;24.37;48.62
9439;BME280;5176;42.622;25.386;2023-07-31T02:04:40;96654.03;;;24.35;48.01
9439;BME280;5176;42.622;25.386;2023-07-31T02:07:07;96638.13;;;24.34;48.09
9439;BME280;5176;42.622;25.386;2023-07-31T02:09:34;96641.25;;;24.37;49.26
9439;BME280;5176;42.622;25.386;2023-07-31T02:12:02;96634.88;;;24.38;48.26
9439;BME280;5176;42.622;25.386;2023-07-31T02:14:29;96627.03;;;24.37;49.23
9439;BME280;5176;42.622;25.386;2023-07-31T02:16:57;96634.63;;;24.33;49.89
9439;BME280;5176;42.622;25.386;2023-07-31T02:19:25;96616.47;;;24.29;49.51
9439;BME280;5176;42.622;25.386;2023-07-31T02:21:52;96611.72;;;24.24;50.06
9439;BME280;5176;42.622;25.386;2023-07-31T02:24:19;96621.38;;;24.25;50.65
9439;BME280;5176;42.622;25.386;2023-07-31T02:26:46;96621.38;;;24.25;50.26
9439;BME280;5176;42.622;25.386;2023-07-31T02:29:13;96619.16;;;24.29;50.60
9439;BME280;5176;42.622;25.386;2023-07-31T02:31:41;96631.09;;;24.33;50.49
9439;BME280;5176;42.622;25.386;2023-07-31T02:34:09;96621.25;;;24.33;50.18
9439;BME280;5176;42.622;25.386;2023-07-31T02:36:37;96616.53;;;24.35;51.31
9439;BME280;5176;42.622;25.386;2023-07-31T02:39:04;96616.72;;;24.34;51.47
9439;BME280;5176;42.622;25.386;2023-07-31T02:41:31;96613.22;;;24.33;51.93
9439;BME280;5176;42.622;25.386;2023-07-31T02:43:58;96613.22;;;24.33;52.23
9439;BME280;5176;42.622;25.386;2023-07-31T02:46:25;96618.75;;;24.32;52.67
9439;BME280;5176;42.622;25.386;2023-07-31T02:48:52;96616.28;;;24.30;53.40
9439;BME280;5176;42.622;25.386;2023-07-31T02:51:21;96621.63;;;24.30;53.13
9439;BME280;5176;42.622;25.386;2023-07-31T02:53:48;96626.38;;;24.28;52.86
9439;BME280;5176;42.622;25.386;2023-07-31T02:56:16;96625.31;;;24.23;53.20
9439;BME280;5176;42.622;25.386;2023-07-31T02:58:43;96611.44;;;24.12;52.92
9439;BME280;5176;42.622;25.386;2023-07-31T03:01:10;96624.63;;;24.14;53.23
9439;BME280;5176;42.622;25.386;2023-07-31T03:03:37;96624.19;;;24.10;53.20
9439;BME280;5176;42.622;25.386;2023-07-31T03:06:05;96627.69;;;24.11;53.23
9439;BME280;5176;42.622;25.386;2023-07-31T03:08:33;96631.19;;;24.11;54.72
9439;BME280;5176;42.622;25.386;2023-07-31T03:11:01;96631.16;;;24.05;54.66
9439;BME280;5176;42.622;25.386;2023-07-31T03:13:28;96635.50;;;24.06;54.45
9439;BME280;5176;42.622;25.386;2023-07-31T03:15:55;96635.28;;;24.07;55.17
9439;BME280;5176;42.622;25.386;2023-07-31T03:18:22;96635.13;;;24.09;55.15
9439;BME280;5176;42.622;25.386;2023-07-31T03:20:50;96645.16;;;24.07;55.68
9439;BME280;5176;42.622;25.386;2023-07-31T03:23:17;96646.84;;;24.08;56.29
9439;BME280;5176;42.622;25.386;2023-07-31T03:25:58;96649.69;;;24.06;56.22
9439;BME280;5176;42.622;25.386;2023-07-31T03:28:25;96659.16;;;24.02;55.62
9439;BME280;5176;42.622;25.386;2023-07-31T03:30:53;96657.47;;;23.95;56.00
9439;BME280;5176;42.622;25.386;2023-07-31T03:33:20;96664.69;;;23.94;55.93
9439;BME280;5176;42.622;25.386;2023-07-31T03:35:47;96669.34;;;23.85;56.40
9439;BME280;5176;42.622;25.386;2023-07-31T03:38:15;96666.59;;;23.79;56.68
9439;BME280;5176;42.622;25.386;2023-07-31T03:40:42;96668.88;;;23.75;55.90
9439;BME280;5176;42.622;25.386;2023-07-31T03:43:11;96677.91;;;23.74;57.38
9439;BME280;5176;42.622;25.386;2023-07-31T03:45:38;96686.56;;;23.76;57.38
9439;BME280;5176;42.622;25.386;2023-07-31T03:48:05;96677.22;;;23.65;58.81
9439;BME280;5176;42.622;25.386;2023-07-31T03:50:33;96692.69;;;23.70;60.88
9439;BME280;5176;42.622;25.386;2023-07-31T03:53:00;96689.38;;;23.68;61.43
9439;BME280;5176;42.622;25.386;2023-07-31T03:55:27;96691.19;;;23.61;61.18
9439;BME280;5176;42.622;25.386;2023-07-31T03:57:54;96691.31;;;23.59;60.01
9439;BME280;5176;42.622;25.386;2023-07-31T04:00:23;96690.97;;;23.62;59.48
9439;BME280;5176;42.622;25.386;2023-07-31T04:02:50;96692.63;;;23.63;58.83
9439;BME280;5176;42.622;25.386;2023-07-31T04:05:18;96693.84;;;23.61;59.08
9439;BME280;5176;42.622;25.386;2023-07-31T04:07:45;96697.91;;;23.57;62.13
9439;BME280;5176;42.622;25.386;2023-07-31T04:10:13;96697.44;;;23.53;68.50
9439;BME280;5176;42.622;25.386;2023-07-31T04:12:40;96688.16;;;23.49;74.40
9439;BME280;5176;42.622;25.386;2023-07-31T04:15:07;96700.84;;;23.41;77.69
9439;BME280;5176;42.622;25.386;2023-07-31T04:17:36;96695.47;;;23.19;81.19
9439;BME280;5176;42.622;25.386;2023-07-31T04:20:05;96694.75;;;23.10;83.78
9439;BME280;5176;42.622;25.386;2023-07-31T04:22:32;96694.88;;;23.02;85.61
9439;BME280;5176;42.622;25.386;2023-07-31T04:25:00;96685.41;;;22.85;86.47
9439;BME280;5176;42.622;25.386;2023-07-31T04:27:27;96689.22;;;22.76;89.30
9439;BME280;5176;42.622;25.386;2023-07-31T04:29:54;96697.78;;;22.71;91.50
9439;BME280;5176;42.622;25.386;2023-07-31T04:32:22;96695.03;;;22.65;91.10
9439;BME280;5176;42.622;25.386;2023-07-31T04:34:50;96696.16;;;22.55;90.50
9439;BME280;5176;42.622;25.386;2023-07-31T04:37:18;96713.19;;;22.54;93.13
9439;BME280;5176;42.622;25.386;2023-07-31T04:39:45;96709.22;;;22.50;95.22
9439;BME280;5176;42.622;25.386;2023-07-31T04:42:12;96715.59;;;22.49;97.57
9439;BME280;5176;42.622;25.386;2023-07-31T04:44:40;96706.28;;;22.45;97.18
9439;BME280;5176;42.622;25.386;2023-07-31T04:47:07;96705.63;;;22.43;96.98
9439;BME280;5176;42.622;25.386;2023-07-31T04:49:34;96715.03;;;22.39;98.30
9439;BME280;5176;42.622;25.386;2023-07-31T04:52:04;96714.59;;;22.36;98.24
9439;BME280;5176;42.622;25.386;2023-07-31T04:54:31;96713.47;;;22.30;98.46
9439;BME280;5176;42.622;25.386;2023-07-31T04:56:59;96726.72;;;22.23;97.10
9439;BME280;5176;42.622;25.386;2023-07-31T04:59:26;96731.44;;;22.21;96.25
9439;BME280;5176;42.622;25.386;2023-07-31T05:01:53;96724.34;;;22.14;99.03
9439;BME280;5176;42.622;25.386;2023-07-31T05:04:21;96733.19;;;22.06;100.00
9439;BME280;5176;42.622;25.386;2023-07-31T05:06:48;96735.72;;;21.85;100.00
9439;BME280;5176;42.622;25.386;2023-07-31T05:09:17;96729.00;;;21.74;100.00
9439;BME280;5176;42.622;25.386;2023-07-31T05:11:45;96722.28;;;21.78;100.00
9439;BME280;5176;42.622;25.386;2023-07-31T05:14:13;96729.00;;;21.74;100.00
9439;BME280;5176;42.622;25.386;2023-07-31T05:16:41;96731.50;;;21.75;100.00
9439;BME280;5176;42.622;25.386;2023-07-31T05:19:11;96726.94;;;21.61;100.00
9439;BME280;5176;42.622;25.386;2023-07-31T05:21:38;96735.22;;;21.66;100.00
9439;BME280;5176;42.622;25.386;2023-07-31T05:24:06;96734.03;;;21.69;100.00
9439;BME280;5176;42.622;25.386;2023-07-31T05:26:34;96744.81;;;21.75;100.00
9439;BME280;5176;42.622;25.386;2023-07-31T05:29:02;96746.56;;;21.68;100.00
9439;BME280;5176;42.622;25.386;2023-07-31T05:31:29;96755.00;;;21.72;100.00
9439;BME280;5176;42.622;25.386;2023-07-31T05:33:58;96754.84;;;21.73;100.00
9439;BME280;5176;42.622;25.386;2023-07-31T05:36:25;96736.41;;;21.64;100.00
9439;BME280;5176;42.622;25.386;2023-07-31T05:38:52;96749.97;;;21.77;100.00
9439;BME280;5176;42.622;25.386;2023-07-31T05:41:20;96752.94;;;21.82;100.00
9439;BME280;5176;42.622;25.386;2023-07-31T05:43:48;96753.28;;;21.79;100.00
9439;BME280;5176;42.622;25.386;2023-07-31T05:46:17;96759.09;;;21.83;100.00
9439;BME280;5176;42.622;25.386;2023-07-31T05:48:44;96761.13;;;21.81;100.00
9439;BME280;5176;42.622;25.386;2023-07-31T05:51:11;96758.81;;;21.77;100.00
9439;BME280;5176;42.622;25.386;2023-07-31T05:53:39;96755.94;;;21.79;100.00
9439;BME280;5176;42.622;25.386;2023-07-31T05:56:06;96757.63;;;21.80;100.00
9439;BME280;5176;42.622;25.386;2023-07-31T05:58:33;96760.94;;;21.82;100.00
9439;BME280;5176;42.622;25.386;2023-07-31T06:01:02;96759.94;;;21.83;100.00
9439;BME280;5176;42.622;25.386;2023-07-31T06:03:30;96753.13;;;21.81;100.00
9439;BME280;5176;42.622;25.386;2023-07-31T06:05:57;96767.94;;;21.83;100.00
9439;BME280;5176;42.622;25.386;2023-07-31T06:08:25;96767.56;;;21.86;100.00
9439;BME280;5176;42.622;25.386;2023-07-31T06:10:52;96766.59;;;21.87;100.00
9439;BME280;5176;42.622;25.386;2023-07-31T06:13:20;96770.91;;;21.88;100.00
9439;BME280;5176;42.622;25.386;2023-07-31T06:15:47;96772.38;;;21.91;100.00
9439;BME280;5176;42.622;25.386;2023-07-31T06:18:16;96785.00;;;21.97;100.00
9439;BME280;5176;42.622;25.386;2023-07-31T06:20:43;96785.63;;;21.99;100.00
9439;BME280;5176;42.622;25.386;2023-07-31T06:23:11;96791.66;;;22.01;100.00
9439;BME280;5176;42.622;25.386;2023-07-31T06:25:38;96803.97;;;22.02;100.00
9439;BME280;5176;42.622;25.386;2023-07-31T06:28:05;96796.59;;;22.04;100.00
9439;BME280;5176;42.622;25.386;2023-07-31T06:30:32;96788.16;;;22.00;100.00
9439;BME280;5176;42.622;25.386;2023-07-31T06:33:00;96794.75;;;22.04;100.00
9439;BME280;5176;42.622;25.386;2023-07-31T06:35:29;96793.75;;;22.06;100.00
9439;BME280;5176;42.622;25.386;2023-07-31T06:37:56;96800.09;;;22.04;100.00
9439;BME280;5176;42.622;25.386;2023-07-31T06:40:24;96798.78;;;22.09;100.00
9439;BME280;5176;42.622;25.386;2023-07-31T06:42:51;96792.25;;;22.11;100.00
9439;BME280;5176;42.622;25.386;2023-07-31T06:45:18;96797.38;;;22.13;100.00
9439;BME280;5176;42.622;25.386;2023-07-31T06:47:47;96798.50;;;22.18;100.00
9439;BME280;5176;42.622;25.386;2023-07-31T06:50:14;96794.56;;;22.14;100.00
9439;BME280;5176;42.622;25.386;2023-07-31T06:52:43;96797.38;;;22.13;100.00
9439;BME280;5176;42.622;25.386;2023-07-31T06:55:18;96798.22;;;22.13;100.00
9439;BME280;5176;42.622;25.386;2023-07-31T06:57:45;96795.13;;;22.01;100.00
9439;BME280;5176;42.622;25.386;2023-07-31T07:00:13;96794.13;;;22.02;100.00
9439;BME280;5176;42.622;25.386;2023-07-31T07:02:41;96797.63;;;22.03;100.00
9439;BME280;5176;42.622;25.386;2023-07-31T07:05:08;96793.75;;;22.06;100.00
9439;BME280;5176;42.622;25.386;2023-07-31T07:07:36;96793.88;;;22.12;100.00
9439;BME280;5176;42.622;25.386;2023-07-31T07:10:06;96789.03;;;22.16;100.00
9439;BME280;5176;42.622;25.386;2023-07-31T07:12:35;96790.16;;;22.21;100.00
9439;BME280;5176;42.622;25.386;2023-07-31T07:15:02;96793.56;;;22.30;100.00
9439;BME280;5176;42.622;25.386;2023-07-31T07:17:30;96785.94;;;22.27;100.00
9439;BME280;5176;42.622;25.386;2023-07-31T07:19:58;96799.53;;;22.32;100.00
9439;BME280;5176;42.622;25.386;2023-07-31T07:22:26;96790.34;;;22.35;100.00
9439;BME280;5176;42.622;25.386;2023-07-31T07:24:53;96789.97;;;22.38;100.00
9439;BME280;5176;42.622;25.386;2023-07-31T07:27:22;96791.91;;;22.44;100.00
9439;BME280;5176;42.622;25.386;2023-07-31T07:29:50;96780.84;;;22.47;100.00
9439;BME280;5176;42.622;25.386;2023-07-31T07:32:18;96783.81;;;22.52;100.00
9439;BME280;5176;42.622;25.386;2023-07-31T07:34:45;96784.28;;;22.55;100.00
9439;BME280;5176;42.622;25.386;2023-07-31T07:37:12;96788.06;;;22.61;100.00
9439;BME280;5176;42.622;25.386;2023-07-31T07:39:40;96775.63;;;22.68;100.00
9439;BME280;5176;42.622;25.386;2023-07-31T07:42:08;96794.97;;;22.70;100.00
9439;BME280;5176;42.622;25.386;2023-07-31T07:44:37;96798.38;;;22.79;100.00
9439;BME280;5176;42.622;25.386;2023-07-31T07:47:04;96798.47;;;22.85;100.00
9439;BME280;5176;42.622;25.386;2023-07-31T07:49:33;96788.63;;;22.86;100.00
9439;BME280;5176;42.622;25.386;2023-07-31T07:52:01;96794.53;;;22.96;100.00
9439;BME280;5176;42.622;25.386;2023-07-31T07:54:28;96797.66;;;23.00;100.00
9439;BME280;5176;42.622;25.386;2023-07-31T07:56:56;96802.44;;;23.04;100.00
9439;BME280;5176;42.622;25.386;2023-07-31T07:59:23;96810.19;;;23.14;100.00
9439;BME280;5176;42.622;25.386;2023-07-31T08:01:52;96800.13;;;23.16;100.00
9439;BME280;5176;42.622;25.386;2023-07-31T08:04:19;96806.81;;;23.27;100.00
9439;BME280;5176;42.622;25.386;2023-07-31T08:06:46;96805.81;;;23.28;100.00
9439;BME280;5176;42.622;25.386;2023-07-31T08:09:13;96797.81;;;23.28;100.00
9439;BME280;5176;42.622;25.386;2023-07-31T08:11:41;96799.59;;;23.42;100.00
9439;BME280;5176;42.622;25.386;2023-07-31T08:14:08;96801.13;;;23.51;100.00
9439;BME280;5176;42.622;25.386;2023-07-31T08:16:35;96796.16;;;23.63;100.00
9439;BME280;5176;42.622;25.386;2023-07-31T08:19:04;96803.56;;;23.82;100.00
9439;BME280;5176;42.622;25.386;2023-07-31T08:21:31;96806.22;;;24.04;100.00
9439;BME280;5176;42.622;25.386;2023-07-31T08:23:59;96811.41;;;24.33;97.97
9439;BME280;5176;42.622;25.386;2023-07-31T08:26:26;96809.31;;;24.57;95.45
9439;BME280;5176;42.622;25.386;2023-07-31T08:28:53;96811.34;;;24.83;97.84
9439;BME280;5176;42.622;25.386;2023-07-31T08:31:21;96807.69;;;24.97;92.51
9439;BME280;5176;42.622;25.386;2023-07-31T08:33:49;96804.44;;;25.02;86.97
9439;BME280;5176;42.622;25.386;2023-07-31T08:36:18;96802.69;;;25.22;89.71
9439;BME280;5176;42.622;25.386;2023-07-31T08:38:45;96803.72;;;25.27;85.45
9439;BME280;5176;42.622;25.386;2023-07-31T08:41:13;96803.56;;;25.29;84.29
9439;BME280;5176;42.622;25.386;2023-07-31T08:43:42;96802.91;;;25.27;84.76
9439;BME280;5176;42.622;25.386;2023-07-31T08:46:10;96797.78;;;25.32;86.06
9439;BME280;5176;42.622;25.386;2023-07-31T08:48:41;96803.78;;;25.47;85.50
9439;BME280;5176;42.622;25.386;2023-07-31T08:51:09;96801.75;;;25.49;84.30
9439;BME280;5176;42.622;25.386;2023-07-31T08:53:38;96796.78;;;25.53;84.68
9439;BME280;5176;42.622;25.386;2023-07-31T08:56:06;96797.22;;;25.57;82.45
9439;BME280;5176;42.622;25.386;2023-07-31T08:58:34;96802.38;;;25.58;83.68
9439;BME280;5176;42.622;25.386;2023-07-31T09:01:04;96801.78;;;25.63;85.21
9439;BME280;5176;42.622;25.386;2023-07-31T09:03:33;96809.19;;;25.61;82.45
9439;BME280;5176;42.622;25.386;2023-07-31T09:06:02;96801.97;;;25.61;82.82
9439;BME280;5176;42.622;25.386;2023-07-31T09:08:32;96804.47;;;25.56;80.01
9439;BME280;5176;42.622;25.386;2023-07-31T09:11:01;96810.03;;;25.54;82.36
9439;BME280;5176;42.622;25.386;2023-07-31T09:13:30;96805.69;;;25.60;83.52
9439;BME280;5176;42.622;25.386;2023-07-31T09:15:58;96781.50;;;25.53;83.62
9439;BME280;5176;42.622;25.386;2023-07-31T09:18:25;96804.50;;;25.69;84.60
9439;BME280;5176;42.622;25.386;2023-07-31T09:21:02;96794.41;;;25.78;84.79
9439;BME280;5176;42.622;25.386;2023-07-31T09:23:45;96795.66;;;25.89;83.00
9439;BME280;5176;42.622;25.386;2023-07-31T09:26:29;96798.97;;;25.97;83.15
9439;BME280;5176;42.622;25.386;2023-07-31T09:28:57;96804.13;;;26.05;82.55
9439;BME280;5176;42.622;25.386;2023-07-31T09:31:38;96808.28;;;26.08;80.85
9439;BME280;5176;42.622;25.386;2023-07-31T09:34:06;96801.25;;;26.14;81.56
9439;BME280;5176;42.622;25.386;2023-07-31T09:36:40;96787.00;;;26.20;81.47
9439;BME280;5176;42.622;25.386;2023-07-31T09:39:09;96789.06;;;26.24;80.78
9439;BME280;5176;42.622;25.386;2023-07-31T09:41:39;96791.97;;;26.29;79.40
9439;BME280;5176;42.622;25.386;2023-07-31T09:44:06;96790.91;;;26.37;77.66
9439;BME280;5176;42.622;25.386;2023-07-31T09:46:35;96782.84;;;26.37;79.15
9439;BME280;5176;42.622;25.386;2023-07-31T09:49:09;96778.94;;;26.46;78.54
9439;BME280;5176;42.622;25.386;2023-07-31T09:51:37;96779.38;;;26.50;78.07
9439;BME280;5176;42.622;25.386;2023-07-31T09:54:11;96783.69;;;26.57;79.36
9439;BME280;5176;42.622;25.386;2023-07-31T09:56:45;96790.03;;;26.83;76.28
9439;BME280;5176;42.622;25.386;2023-07-31T09:59:14;96787.97;;;26.85;70.45
9439;BME280;5176;42.622;25.386;2023-07-31T10:01:43;96784.22;;;26.86;71.82
9439;BME280;5176;42.622;25.386;2023-07-31T10:04:13;96791.69;;;26.91;72.89
9439;BME280;5176;42.622;25.386;2023-07-31T10:06:43;96790.03;;;26.89;69.93
9439;BME280;5176;42.622;25.386;2023-07-31T10:09:12;96782.78;;;26.90;71.57
9439;BME280;5176;42.622;25.386;2023-07-31T10:11:47;96778.84;;;26.86;69.81
9439;BME280;5176;42.622;25.386;2023-07-31T10:14:18;96779.41;;;27.08;72.85
9439;BME280;5176;42.622;25.386;2023-07-31T10:16:47;96773.00;;;27.15;68.58
9439;BME280;5176;42.622;25.386;2023-07-31T10:19:14;96766.06;;;27.33;70.90
9439;BME280;5176;42.622;25.386;2023-07-31T10:21:42;96766.56;;;27.55;68.36
9439;BME280;5176;42.622;25.386;2023-07-31T10:24:11;96760.72;;;27.64;67.12
9439;BME280;5176;42.622;25.386;2023-07-31T10:26:40;96751.59;;;27.72;66.25
9439;BME280;5176;42.622;25.386;2023-07-31T10:29:09;96754.13;;;27.92;69.77
9439;BME280;5176;42.622;25.386;2023-07-31T10:31:38;96756.13;;;28.03;66.51
9439;BME280;5176;42.622;25.386;2023-07-31T10:34:05;96751.16;;;28.25;65.08
9439;BME280;5176;42.622;25.386;2023-07-31T10:36:33;96754.28;;;28.47;63.46
9439;BME280;5176;42.622;25.386;2023-07-31T10:39:03;96757.69;;;28.61;59.52
9439;BME280;5176;42.622;25.386;2023-07-31T10:41:31;96745.66;;;28.63;59.92
9439;BME280;5176;42.622;25.386;2023-07-31T10:43:59;96746.25;;;28.84;57.87
9439;BME280;5176;42.622;25.386;2023-07-31T10:46:29;96739.91;;;28.96;57.73
9439;BME280;5176;42.622;25.386;2023-07-31T10:49:01;96732.00;;;29.13;54.99
9439;BME280;5176;42.622;25.386;2023-07-31T10:51:40;96735.50;;;29.14;54.93
9439;BME280;5176;42.622;25.386;2023-07-31T10:54:11;96736.66;;;29.06;55.37
9439;BME280;5176;42.622;25.386;2023-07-31T10:56:39;96738.03;;;28.97;54.27
9439;BME280;5176;42.622;25.386;2023-07-31T10:59:06;96727.38;;;28.84;54.85
9439;BME280;5176;42.622;25.386;2023-07-31T11:01:52;96728.41;;;28.83;53.62
9439;BME280;5176;42.622;25.386;2023-07-31T11:04:24;96731.25;;;28.88;52.32
9439;BME280;5176;42.622;25.386;2023-07-31T11:06:59;96723.38;;;28.68;51.45
9439;BME280;5176;42.622;25.386;2023-07-31T11:09:31;96718.88;;;28.43;50.01
9439;BME280;5176;42.622;25.386;2023-07-31T11:12:00;96711.09;;;28.29;52.97
9439;BME280;5176;42.622;25.386;2023-07-31T11:14:27;96712.63;;;28.24;53.32
9439;BME280;5176;42.622;25.386;2023-07-31T11:16:56;96712.91;;;28.16;52.28
9439;BME280;5176;42.622;25.386;2023-07-31T11:19:23;96680.13;;;27.94;51.93
9439;BME280;5176;42.622;25.386;2023-07-31T11:21:51;96704.47;;;28.06;51.69
9439;BME280;5176;42.622;25.386;2023-07-31T11:24:20;96704.59;;;27.93;51.61
9439;BME280;5176;42.622;25.386;2023-07-31T11:26:50;96698.03;;;27.89;51.69
9439;BME280;5176;42.622;25.386;2023-07-31T11:29:18;96696.03;;;27.78;51.98
9439;BME280;5176;42.622;25.386;2023-07-31T11:31:47;96676.44;;;27.64;52.36
9439;BME280;5176;42.622;25.386;2023-07-31T11:34:16;96692.34;;;27.72;53.98
9439;BME280;5176;42.622;25.386;2023-07-31T11:36:53;96687.41;;;27.69;53.58
9439;BME280;5176;42.622;25.386;2023-07-31T11:39:20;96699.25;;;27.55;54.73
9439;BME280;5176;42.622;25.386;2023-07-31T11:41:47;96701.59;;;27.51;54.64
9439;BME280;5176;42.622;25.386;2023-07-31T11:44:15;96688.41;;;27.43;56.18
9439;BME280;5176;42.622;25.386;2023-07-31T11:46:42;96689.91;;;27.32;55.98
9439;BME280;5176;42.622;25.386;2023-07-31T11:49:10;96690.53;;;27.28;56.63
9439;BME280;5176;42.622;25.386;2023-07-31T11:51:39;96691.00;;;27.25;56.82
9439;BME280;5176;42.622;25.386;2023-07-31T11:54:06;96690.16;;;27.24;56.75
9439;BME280;5176;42.622;25.386;2023-07-31T11:56:33;96687.66;;;27.29;57.03
9439;BME280;5176;42.622;25.386;2023-07-31T11:59:01;96684.28;;;27.34;55.76
9439;BME280;5176;42.622;25.386;2023-07-31T12:01:31;96678.41;;;27.50;57.16
9439;BME280;5176;42.622;25.386;2023-07-31T12:03:59;96674.78;;;27.63;55.32
9439;BME280;5176;42.622;25.386;2023-07-31T12:06:33;96681.00;;;27.88;53.37
9439;BME280;5176;42.622;25.386;2023-07-31T12:09:03;96675.56;;;27.95;52.06
9439;BME280;5176;42.622;25.386;2023-07-31T12:11:31;96680.00;;;28.08;51.71
9439;BME280;5176;42.622;25.386;2023-07-31T12:13:58;96673.22;;;28.05;51.98
9439;BME280;5176;42.622;25.386;2023-07-31T12:16:26;96676.13;;;28.04;50.69
9439;BME280;5176;42.622;25.386;2023-07-31T12:18:55;96630.66;;;27.64;49.50
9439;BME280;5176;42.622;25.386;2023-07-31T12:21:22;96675.03;;;27.86;50.64
9439;BME280;5176;42.622;25.386;2023-07-31T12:23:51;96673.84;;;27.82;51.63
9439;BME280;5176;42.622;25.386;2023-07-31T12:26:21;96664.25;;;27.86;52.78
9439;BME280;5176;42.622;25.386;2023-07-31T12:28:50;96626.94;;;28.08;51.29
9439;BME280;5176;42.622;25.386;2023-07-31T12:31:20;96654.56;;;28.47;49.85
9439;BME280;5176;42.622;25.386;2023-07-31T12:33:49;96651.28;;;28.63;48.41
9439;BME280;5176;42.622;25.386;2023-07-31T12:36:18;96653.91;;;28.82;48.39
9439;BME280;5176;42.622;25.386;2023-07-31T12:38:45;96641.97;;;28.96;47.60
9439;BME280;5176;42.622;25.386;2023-07-31T12:41:13;96643.03;;;29.07;47.45
9439;BME280;5176;42.622;25.386;2023-07-31T12:43:43;96635.00;;;29.18;47.42
9439;BME280;5176;42.622;25.386;2023-07-31T12:46:11;96643.94;;;29.30;47.87
9439;BME280;5176;42.622;25.386;2023-07-31T12:48:39;96592.50;;;29.14;47.82
9439;BME280;5176;42.622;25.386;2023-07-31T12:51:06;96646.47;;;29.55;46.37
9439;BME280;5176;42.622;25.386;2023-07-31T12:53:34;96647.91;;;29.58;46.56
9439;BME280;5176;42.622;25.386;2023-07-31T12:56:01;96646.03;;;29.58;45.94
9439;BME280;5176;42.622;25.386;2023-07-31T12:58:29;96645.78;;;29.60;46.59
9439;BME280;5176;42.622;25.386;2023-07-31T13:00:58;96650.63;;;29.70;45.77
9439;BME280;5176;42.622;25.386;2023-07-31T13:03:25;96649.09;;;29.74;45.36
9439;BME280;5176;42.622;25.386;2023-07-31T13:05:52;96636.66;;;29.73;45.79
9439;BME280;5176;42.622;25.386;2023-07-31T13:08:20;96640.16;;;29.62;46.50
9439;BME280;5176;42.622;25.386;2023-07-31T13:10:48;96642.84;;;29.62;45.09
9439;BME280;5176;42.622;25.386;2023-07-31T13:13:15;96639.72;;;29.65;44.66